sensor_id;sensor_type;location;lat;lon;timestamp;P1;durP1;ratioP1;P2;durP2;ratioP2
16484;SDS011;8353;47.856;12.344;2022-09-01T00:00:43;10.80;;;9.80;;
16484;SDS011;8353;47.856;12.344;2022-09-01T00:03:33;8.32;;;7.53;;
16484;SDS011;8353;47.856;12.344;2022-09-01T00:06:21;10.23;;;9.18;;
16484;SDS011;8353;47.856;12.344;2022-09-01T00:09:11;11.23;;;10.13;;
16484;SDS011;8353;47.856;12.344;2022-09-01T00:12:02;11.63;;;10.52;;
16484;SDS011;8353;47.856;12.344;2022-09-01T00:14:50;10.75;;;9.75;;
16484;SDS011;8353;47.856;12.344;2022-09-01T00:17:38;8.50;;;7.70;;
16484;SDS011;8353;47.856;12.344;2022-09-01T00:20:25;7.47;;;6.82;;
16484;SDS011;8353;47.856;12.344;2022-09-01T00:23:12;5.70;;;5.30;;
16484;SDS011;8353;47.856;12.344;2022-09-01T00:26:00;6.40;;;5.90;;
16484;SDS011;8353;47.856;12.344;2022-09-01T00:28:47;4.88;;;4.47;;
16484;SDS011;8353;47.856;12.344;2022-09-01T00:31:35;6.88;;;5.97;;
16484;SDS011;8353;47.856;12.344;2022-09-01T00:34:22;8.57;;;7.88;;
16484;SDS011;8353;47.856;12.344;2022-09-01T00:37:09;6.43;;;5.78;;
16484;SDS011;8353;47.856;12.344;2022-09-01T00:39:56;5.20;;;4.70;;
16484;SDS011;8353;47.856;12.344;2022-09-01T00:42:44;3.58;;;3.28;;
16484;SDS011;8353;47.856;12.344;2022-09-01T00:45:33;5.65;;;5.00;;
16484;SDS011;8353;47.856;12.344;2022-09-01T00:48:19;4.00;;;3.70;;
16484;SDS011;8353;47.856;12.344;2022-09-01T00:51:06;3.95;;;3.65;;
16484;SDS011;8353;47.856;12.344;2022-09-01T00:53:56;3.90;;;3.60;;
16484;SDS011;8353;47.856;12.344;2022-09-01T00:56:45;7.55;;;6.85;;
16484;SDS011;8353;47.856;12.344;2022-09-01T00:59:34;8.18;;;7.47;;
16484;SDS011;8353;47.856;12.344;2022-09-01T01:02:23;8.85;;;8.05;;
16484;SDS011;8353;47.856;12.344;2022-09-01T01:05:11;6.28;;;5.68;;
16484;SDS011;8353;47.856;12.344;2022-09-01T01:07:59;4.80;;;4.40;;
16484;SDS011;8353;47.856;12.344;2022-09-01T01:10:46;3.83;;;3.53;;
16484;SDS011;8353;47.856;12.344;2022-09-01T01:13:45;3.60;;;3.40;;
16484;SDS011;8353;47.856;12.344;2022-09-01T01:16:37;3.60;;;3.30;;
16484;SDS011;8353;47.856;12.344;2022-09-01T01:19:30;6.25;;;5.65;;
16484;SDS011;8353;47.856;12.344;2022-09-01T01:22:49;3.88;;;3.58;;
16484;SDS011;8353;47.856;12.344;2022-09-01T01:25:52;3.20;;;3.00;;
16484;SDS011;8353;47.856;12.344;2022-09-01T01:28:41;3.00;;;2.80;;
16484;SDS011;8353;47.856;12.344;2022-09-01T01:31:29;3.80;;;3.50;;
16484;SDS011;8353;47.856;12.344;2022-09-01T01:34:16;6.93;;;6.32;;
16484;SDS011;8353;47.856;12.344;2022-09-01T01:37:04;3.67;;;3.38;;
16484;SDS011;8353;47.856;12.344;2022-09-01T01:39:51;6.47;;;5.97;;
16484;SDS011;8353;47.856;12.344;2022-09-01T01:42:39;4.07;;;3.78;;
16484;SDS011;8353;47.856;12.344;2022-09-01T01:45:28;4.03;;;3.72;;
16484;SDS011;8353;47.856;12.344;2022-09-01T01:48:15;3.80;;;3.47;;
16484;SDS011;8353;47.856;12.344;2022-09-01T01:51:08;4.80;;;4.10;;
16484;SDS011;8353;47.856;12.344;2022-09-01T01:53:56;3.78;;;3.47;;
16484;SDS011;8353;47.856;12.344;2022-09-01T01:56:43;4.88;;;4.47;;
16484;SDS011;8353;47.856;12.344;2022-09-01T01:59:33;5.05;;;4.57;;
16484;SDS011;8353;47.856;12.344;2022-09-01T02:02:22;6.18;;;5.57;;
16484;SDS011;8353;47.856;12.344;2022-09-01T02:05:10;6.05;;;4.70;;
16484;SDS011;8353;47.856;12.344;2022-09-01T02:08:05;5.10;;;4.68;;
16484;SDS011;8353;47.856;12.344;2022-09-01T02:10:54;3.60;;;3.30;;
16484;SDS011;8353;47.856;12.344;2022-09-01T02:13:44;3.80;;;3.50;;
16484;SDS011;8353;47.856;12.344;2022-09-01T02:16:35;5.78;;;5.10;;
16484;SDS011;8353;47.856;12.344;2022-09-01T02:19:23;3.85;;;3.55;;
16484;SDS011;8353;47.856;12.344;2022-09-01T02:22:10;6.35;;;5.72;;
16484;SDS011;8353;47.856;12.344;2022-09-01T02:24:58;3.72;;;3.42;;
16484;SDS011;8353;47.856;12.344;2022-09-01T02:27:46;3.05;;;2.85;;
16484;SDS011;8353;47.856;12.344;2022-09-01T02:30:40;4.40;;;4.00;;
16484;SDS011;8353;47.856;12.344;2022-09-01T02:33:29;4.25;;;3.78;;
16484;SDS011;8353;47.856;12.344;2022-09-01T02:36:17;3.40;;;3.00;;
16484;SDS011;8353;47.856;12.344;2022-09-01T02:39:05;4.05;;;3.75;;
16484;SDS011;8353;47.856;12.344;2022-09-01T02:41:52;4.20;;;3.80;;
16484;SDS011;8353;47.856;12.344;2022-09-01T02:44:43;4.47;;;4.10;;
16484;SDS011;8353;47.856;12.344;2022-09-01T02:47:32;4.43;;;4.05;;
16484;SDS011;8353;47.856;12.344;2022-09-01T02:50:22;3.00;;;2.80;;
16484;SDS011;8353;47.856;12.344;2022-09-01T02:53:11;4.15;;;3.80;;
16484;SDS011;8353;47.856;12.344;2022-09-01T02:55:59;5.85;;;5.15;;
16484;SDS011;8353;47.856;12.344;2022-09-01T02:58:48;4.15;;;3.80;;
16484;SDS011;8353;47.856;12.344;2022-09-01T03:01:36;5.15;;;4.75;;
16484;SDS011;8353;47.856;12.344;2022-09-01T03:04:24;5.70;;;5.10;;
16484;SDS011;8353;47.856;12.344;2022-09-01T03:07:14;6.43;;;5.82;;
16484;SDS011;8353;47.856;12.344;2022-09-01T03:10:02;6.43;;;5.82;;
16484;SDS011;8353;47.856;12.344;2022-09-01T03:12:53;7.32;;;6.65;;
16484;SDS011;8353;47.856;12.344;2022-09-01T03:15:43;3.85;;;3.55;;
16484;SDS011;8353;47.856;12.344;2022-09-01T03:18:32;6.15;;;5.55;;
16484;SDS011;8353;47.856;12.344;2022-09-01T03:21:20;5.95;;;5.45;;
16484;SDS011;8353;47.856;12.344;2022-09-01T03:24:09;3.25;;;2.95;;
16484;SDS011;8353;47.856;12.344;2022-09-01T03:27:01;5.65;;;3.60;;
16484;SDS011;8353;47.856;12.344;2022-09-01T03:29:49;7.03;;;5.55;;
16484;SDS011;8353;47.856;12.344;2022-09-01T03:32:37;3.75;;;3.45;;
16484;SDS011;8353;47.856;12.344;2022-09-01T03:35:26;5.63;;;5.13;;
16484;SDS011;8353;47.856;12.344;2022-09-01T03:38:16;5.13;;;4.13;;
16484;SDS011;8353;47.856;12.344;2022-09-01T03:41:09;3.25;;;3.05;;
16484;SDS011;8353;47.856;12.344;2022-09-01T03:43:57;6.00;;;5.47;;
16484;SDS011;8353;47.856;12.344;2022-09-01T03:46:45;3.22;;;3.03;;
16484;SDS011;8353;47.856;12.344;2022-09-01T03:49:33;4.07;;;3.78;;
16484;SDS011;8353;47.856;12.344;2022-09-01T03:52:22;5.95;;;5.45;;
16484;SDS011;8353;47.856;12.344;2022-09-01T03:55:14;3.85;;;3.55;;
16484;SDS011;8353;47.856;12.344;2022-09-01T03:58:08;3.20;;;2.90;;
16484;SDS011;8353;47.856;12.344;2022-09-01T04:00:58;5.60;;;5.15;;
16484;SDS011;8353;47.856;12.344;2022-09-01T04:03:47;5.25;;;4.85;;
16484;SDS011;8353;47.856;12.344;2022-09-01T04:06:35;5.43;;;4.85;;
16484;SDS011;8353;47.856;12.344;2022-09-01T04:09:23;3.53;;;3.22;;
16484;SDS011;8353;47.856;12.344;2022-09-01T04:12:11;2.83;;;2.63;;
16484;SDS011;8353;47.856;12.344;2022-09-01T04:15:03;2.70;;;2.50;;
16484;SDS011;8353;47.856;12.344;2022-09-01T04:17:52;3.33;;;3.03;;
16484;SDS011;8353;47.856;12.344;2022-09-01T04:20:55;3.72;;;3.42;;
16484;SDS011;8353;47.856;12.344;2022-09-01T04:23:43;4.55;;;4.15;;
16484;SDS011;8353;47.856;12.344;2022-09-01T04:26:32;5.85;;;5.28;;
16484;SDS011;8353;47.856;12.344;2022-09-01T04:29:22;3.35;;;3.05;;
16484;SDS011;8353;47.856;12.344;2022-09-01T04:32:14;4.35;;;3.95;;
16484;SDS011;8353;47.856;12.344;2022-09-01T04:35:06;3.38;;;3.13;;
16484;SDS011;8353;47.856;12.344;2022-09-01T04:37:56;3.50;;;3.20;;
16484;SDS011;8353;47.856;12.344;2022-09-01T04:40:43;3.70;;;3.30;;
16484;SDS011;8353;47.856;12.344;2022-09-01T04:43:31;5.15;;;4.75;;
16484;SDS011;8353;47.856;12.344;2022-09-01T04:46:20;6.07;;;5.55;;
16484;SDS011;8353;47.856;12.344;2022-09-01T04:49:09;4.80;;;4.40;;
16484;SDS011;8353;47.856;12.344;2022-09-01T04:52:00;5.68;;;5.10;;
16484;SDS011;8353;47.856;12.344;2022-09-01T04:54:48;5.50;;;5.00;;
16484;SDS011;8353;47.856;12.344;2022-09-01T04:57:35;6.13;;;5.63;;
16484;SDS011;8353;47.856;12.344;2022-09-01T05:00:26;4.55;;;4.15;;
16484;SDS011;8353;47.856;12.344;2022-09-01T05:03:17;4.53;;;4.10;;
16484;SDS011;8353;47.856;12.344;2022-09-01T05:06:13;6.57;;;5.15;;
16484;SDS011;8353;47.856;12.344;2022-09-01T05:09:02;5.25;;;4.85;;
16484;SDS011;8353;47.856;12.344;2022-09-01T05:11:50;4.68;;;4.28;;
16484;SDS011;8353;47.856;12.344;2022-09-01T05:14:37;5.85;;;5.30;;
16484;SDS011;8353;47.856;12.344;2022-09-01T05:17:26;5.32;;;4.82;;
16484;SDS011;8353;47.856;12.344;2022-09-01T05:20:13;4.75;;;4.35;;
16484;SDS011;8353;47.856;12.344;2022-09-01T05:23:06;6.43;;;5.93;;
16484;SDS011;8353;47.856;12.344;2022-09-01T05:25:56;7.45;;;5.95;;
16484;SDS011;8353;47.856;12.344;2022-09-01T05:28:45;7.00;;;5.85;;
16484;SDS011;8353;47.856;12.344;2022-09-01T05:31:34;8.20;;;5.97;;
16484;SDS011;8353;47.856;12.344;2022-09-01T05:34:23;7.18;;;6.57;;
16484;SDS011;8353;47.856;12.344;2022-09-01T05:37:12;7.65;;;6.95;;
16484;SDS011;8353;47.856;12.344;2022-09-01T05:40:02;6.75;;;6.10;;
16484;SDS011;8353;47.856;12.344;2022-09-01T05:43:00;7.80;;;7.10;;
16484;SDS011;8353;47.856;12.344;2022-09-01T05:45:47;7.05;;;6.35;;
16484;SDS011;8353;47.856;12.344;2022-09-01T05:48:37;8.35;;;7.47;;
16484;SDS011;8353;47.856;12.344;2022-09-01T05:51:25;6.78;;;6.18;;
16484;SDS011;8353;47.856;12.344;2022-09-01T05:54:19;7.25;;;6.65;;
16484;SDS011;8353;47.856;12.344;2022-09-01T05:57:11;6.63;;;5.95;;
16484;SDS011;8353;47.856;12.344;2022-09-01T06:00:03;5.32;;;4.82;;
16484;SDS011;8353;47.856;12.344;2022-09-01T06:03:05;6.82;;;6.22;;
16484;SDS011;8353;47.856;12.344;2022-09-01T06:05:53;5.43;;;5.00;;
16484;SDS011;8353;47.856;12.344;2022-09-01T06:08:47;4.97;;;4.57;;
16484;SDS011;8353;47.856;12.344;2022-09-01T06:11:34;8.15;;;7.35;;
16484;SDS011;8353;47.856;12.344;2022-09-01T06:14:27;8.23;;;7.40;;
16484;SDS011;8353;47.856;12.344;2022-09-01T06:17:16;7.85;;;7.15;;
16484;SDS011;8353;47.856;12.344;2022-09-01T06:20:07;5.68;;;5.03;;
16484;SDS011;8353;47.856;12.344;2022-09-01T06:22:55;8.25;;;7.47;;
16484;SDS011;8353;47.856;12.344;2022-09-01T06:25:44;7.28;;;6.57;;
16484;SDS011;8353;47.856;12.344;2022-09-01T06:28:38;5.53;;;5.10;;
16484;SDS011;8353;47.856;12.344;2022-09-01T06:31:29;5.65;;;5.22;;
16484;SDS011;8353;47.856;12.344;2022-09-01T06:34:23;7.07;;;6.43;;
16484;SDS011;8353;47.856;12.344;2022-09-01T06:37:11;8.23;;;5.25;;
16484;SDS011;8353;47.856;12.344;2022-09-01T06:40:01;6.97;;;6.43;;
16484;SDS011;8353;47.856;12.344;2022-09-01T06:42:59;7.15;;;6.45;;
16484;SDS011;8353;47.856;12.344;2022-09-01T06:45:52;5.07;;;4.68;;
16484;SDS011;8353;47.856;12.344;2022-09-01T06:48:41;4.65;;;4.25;;
16484;SDS011;8353;47.856;12.344;2022-09-01T06:51:36;7.82;;;7.13;;
16484;SDS011;8353;47.856;12.344;2022-09-01T06:54:27;7.20;;;5.97;;
16484;SDS011;8353;47.856;12.344;2022-09-01T06:57:15;7.10;;;6.45;;
16484;SDS011;8353;47.856;12.344;2022-09-01T07:00:03;6.13;;;5.53;;
16484;SDS011;8353;47.856;12.344;2022-09-01T07:03:02;7.38;;;6.70;;
16484;SDS011;8353;47.856;12.344;2022-09-01T07:05:56;7.57;;;5.45;;
16484;SDS011;8353;47.856;12.344;2022-09-01T07:08:43;4.57;;;4.18;;
16484;SDS011;8353;47.856;12.344;2022-09-01T07:11:34;9.52;;;8.55;;
16484;SDS011;8353;47.856;12.344;2022-09-01T07:14:22;8.55;;;5.32;;
16484;SDS011;8353;47.856;12.344;2022-09-01T07:17:18;5.20;;;3.95;;
16484;SDS011;8353;47.856;12.344;2022-09-01T07:20:06;3.97;;;3.67;;
16484;SDS011;8353;47.856;12.344;2022-09-01T07:22:57;7.82;;;7.03;;
16484;SDS011;8353;47.856;12.344;2022-09-01T07:25:49;5.75;;;5.10;;
16484;SDS011;8353;47.856;12.344;2022-09-01T07:28:40;5.03;;;4.47;;
16484;SDS011;8353;47.856;12.344;2022-09-01T07:31:41;8.43;;;7.63;;
16484;SDS011;8353;47.856;12.344;2022-09-01T07:34:32;7.30;;;6.65;;
16484;SDS011;8353;47.856;12.344;2022-09-01T07:37:26;4.05;;;3.67;;
16484;SDS011;8353;47.856;12.344;2022-09-01T07:40:18;8.27;;;6.55;;
16484;SDS011;8353;47.856;12.344;2022-09-01T07:43:12;5.85;;;5.35;;
16484;SDS011;8353;47.856;12.344;2022-09-01T07:46:09;8.73;;;7.72;;
16484;SDS011;8353;47.856;12.344;2022-09-01T07:48:59;6.38;;;5.03;;
16484;SDS011;8353;47.856;12.344;2022-09-01T07:51:51;5.18;;;4.75;;
16484;SDS011;8353;47.856;12.344;2022-09-01T07:54:48;7.13;;;6.47;;
16484;SDS011;8353;47.856;12.344;2022-09-01T07:57:40;5.05;;;3.50;;
16484;SDS011;8353;47.856;12.344;2022-09-01T08:00:34;4.47;;;3.70;;
16484;SDS011;8353;47.856;12.344;2022-09-01T08:03:23;5.53;;;5.03;;
16484;SDS011;8353;47.856;12.344;2022-09-01T08:06:13;4.47;;;3.75;;
16484;SDS011;8353;47.856;12.344;2022-09-01T08:09:04;6.57;;;5.97;;
16484;SDS011;8353;47.856;12.344;2022-09-01T08:11:55;6.22;;;4.68;;
16484;SDS011;8353;47.856;12.344;2022-09-01T08:14:45;6.35;;;5.75;;
16484;SDS011;8353;47.856;12.344;2022-09-01T08:17:41;5.25;;;4.80;;
16484;SDS011;8353;47.856;12.344;2022-09-01T08:20:32;5.93;;;5.30;;
16484;SDS011;8353;47.856;12.344;2022-09-01T08:23:24;6.45;;;4.18;;
16484;SDS011;8353;47.856;12.344;2022-09-01T08:26:14;7.90;;;7.25;;
16484;SDS011;8353;47.856;12.344;2022-09-01T08:29:04;8.88;;;7.97;;
16484;SDS011;8353;47.856;12.344;2022-09-01T08:31:58;8.48;;;7.70;;
16484;SDS011;8353;47.856;12.344;2022-09-01T08:34:45;6.22;;;5.72;;
16484;SDS011;8353;47.856;12.344;2022-09-01T08:37:37;5.68;;;5.18;;
16484;SDS011;8353;47.856;12.344;2022-09-01T08:40:25;6.90;;;6.25;;
16484;SDS011;8353;47.856;12.344;2022-09-01T08:43:15;4.10;;;3.70;;
16484;SDS011;8353;47.856;12.344;2022-09-01T08:46:11;6.07;;;5.47;;
16484;SDS011;8353;47.856;12.344;2022-09-01T08:49:09;5.57;;;5.13;;
16484;SDS011;8353;47.856;12.344;2022-09-01T08:52:05;4.43;;;4.13;;
16484;SDS011;8353;47.856;12.344;2022-09-01T08:55:04;6.82;;;5.57;;
16484;SDS011;8353;47.856;12.344;2022-09-01T08:58:00;4.05;;;3.65;;
16484;SDS011;8353;47.856;12.344;2022-09-01T09:00:53;8.40;;;7.60;;
16484;SDS011;8353;47.856;12.344;2022-09-01T09:03:45;4.85;;;4.45;;
16484;SDS011;8353;47.856;12.344;2022-09-01T09:06:46;7.85;;;7.25;;
16484;SDS011;8353;47.856;12.344;2022-09-01T09:09:45;4.82;;;3.60;;
16484;SDS011;8353;47.856;12.344;2022-09-01T09:12:45;6.18;;;5.57;;
16484;SDS011;8353;47.856;12.344;2022-09-01T09:15:51;5.88;;;5.47;;
16484;SDS011;8353;47.856;12.344;2022-09-01T09:18:46;4.82;;;4.43;;
16484;SDS011;8353;47.856;12.344;2022-09-01T09:21:48;5.57;;;5.07;;
16484;SDS011;8353;47.856;12.344;2022-09-01T09:24:41;4.70;;;4.28;;
16484;SDS011;8353;47.856;12.344;2022-09-01T09:27:35;7.88;;;7.20;;
16484;SDS011;8353;47.856;12.344;2022-09-01T09:30:29;7.03;;;6.43;;
16484;SDS011;8353;47.856;12.344;2022-09-01T09:33:32;8.23;;;7.53;;
16484;SDS011;8353;47.856;12.344;2022-09-01T09:36:34;8.05;;;7.38;;
16484;SDS011;8353;47.856;12.344;2022-09-01T09:39:25;8.57;;;7.82;;
16484;SDS011;8353;47.856;12.344;2022-09-01T09:42:13;8.73;;;7.95;;
16484;SDS011;8353;47.856;12.344;2022-09-01T09:45:02;7.65;;;6.53;;
16484;SDS011;8353;47.856;12.344;2022-09-01T09:47:51;7.80;;;7.13;;
16484;SDS011;8353;47.856;12.344;2022-09-01T09:50:44;8.23;;;7.53;;
16484;SDS011;8353;47.856;12.344;2022-09-01T09:53:34;4.90;;;4.50;;
16484;SDS011;8353;47.856;12.344;2022-09-01T09:56:23;7.28;;;6.68;;
16484;SDS011;8353;47.856;12.344;2022-09-01T09:59:26;6.85;;;6.13;;
16484;SDS011;8353;47.856;12.344;2022-09-01T10:02:23;4.55;;;4.15;;
16484;SDS011;8353;47.856;12.344;2022-09-01T10:05:28;6.57;;;5.97;;
16484;SDS011;8353;47.856;12.344;2022-09-01T10:08:36;7.32;;;5.70;;
16484;SDS011;8353;47.856;12.344;2022-09-01T10:11:32;5.95;;;5.45;;
16484;SDS011;8353;47.856;12.344;2022-09-01T10:14:26;6.40;;;5.78;;
16484;SDS011;8353;47.856;12.344;2022-09-01T10:17:16;9.05;;;8.20;;
16484;SDS011;8353;47.856;12.344;2022-09-01T10:20:16;8.10;;;7.38;;
16484;SDS011;8353;47.856;12.344;2022-09-01T10:23:06;7.25;;;6.63;;
16484;SDS011;8353;47.856;12.344;2022-09-01T10:26:05;9.02;;;7.45;;
16484;SDS011;8353;47.856;12.344;2022-09-01T10:29:04;5.30;;;4.90;;
16484;SDS011;8353;47.856;12.344;2022-09-01T10:31:55;7.18;;;6.53;;
16484;SDS011;8353;47.856;12.344;2022-09-01T10:34:44;6.15;;;5.43;;
16484;SDS011;8353;47.856;12.344;2022-09-01T10:37:34;5.95;;;5.45;;
16484;SDS011;8353;47.856;12.344;2022-09-01T10:40:39;5.55;;;4.55;;
16484;SDS011;8353;47.856;12.344;2022-09-01T10:43:34;5.38;;;4.97;;
16484;SDS011;8353;47.856;12.344;2022-09-01T10:53:01;6.10;;;5.60;;
16484;SDS011;8353;47.856;12.344;2022-09-01T10:55:59;4.10;;;3.80;;
16484;SDS011;8353;47.856;12.344;2022-09-01T10:58:59;6.28;;;5.68;;
16484;SDS011;8353;47.856;12.344;2022-09-01T11:02:14;5.75;;;4.72;;
16484;SDS011;8353;47.856;12.344;2022-09-01T11:05:10;6.35;;;5.85;;
16484;SDS011;8353;47.856;12.344;2022-09-01T11:11:27;4.32;;;3.95;;
16484;SDS011;8353;47.856;12.344;2022-09-01T11:14:26;4.38;;;3.97;;
16484;SDS011;8353;47.856;12.344;2022-09-01T11:17:27;5.32;;;4.82;;
16484;SDS011;8353;47.856;12.344;2022-09-01T11:23:25;4.10;;;3.58;;
16484;SDS011;8353;47.856;12.344;2022-09-01T11:33:02;3.60;;;3.30;;
16484;SDS011;8353;47.856;12.344;2022-09-01T11:36:12;3.42;;;3.13;;
16484;SDS011;8353;47.856;12.344;2022-09-01T11:39:08;3.90;;;3.60;;
16484;SDS011;8353;47.856;12.344;2022-09-01T11:42:16;3.38;;;3.17;;
16484;SDS011;8353;47.856;12.344;2022-09-01T11:45:12;3.90;;;3.60;;
16484;SDS011;8353;47.856;12.344;2022-09-01T11:48:06;4.00;;;3.70;;
16484;SDS011;8353;47.856;12.344;2022-09-01T11:50:57;2.80;;;2.60;;
16484;SDS011;8353;47.856;12.344;2022-09-01T11:53:50;3.63;;;3.10;;
16484;SDS011;8353;47.856;12.344;2022-09-01T11:56:45;3.13;;;2.83;;
16484;SDS011;8353;47.856;12.344;2022-09-01T11:59:38;3.38;;;2.95;;
16484;SDS011;8353;47.856;12.344;2022-09-01T12:02:26;2.50;;;2.30;;
16484;SDS011;8353;47.856;12.344;2022-09-01T12:05:33;3.17;;;2.88;;
16484;SDS011;8353;47.856;12.344;2022-09-01T12:08:22;3.20;;;2.90;;
16484;SDS011;8353;47.856;12.344;2022-09-01T12:11:17;3.10;;;2.80;;
16484;SDS011;8353;47.856;12.344;2022-09-01T12:14:07;2.45;;;2.25;;
16484;SDS011;8353;47.856;12.344;2022-09-01T12:17:00;2.75;;;2.55;;
16484;SDS011;8353;47.856;12.344;2022-09-01T12:23:17;2.40;;;2.10;;
16484;SDS011;8353;47.856;12.344;2022-09-01T12:26:11;3.78;;;2.25;;
16484;SDS011;8353;47.856;12.344;2022-09-01T12:29:01;2.45;;;2.25;;
16484;SDS011;8353;47.856;12.344;2022-09-01T12:31:52;2.58;;;2.03;;
16484;SDS011;8353;47.856;12.344;2022-09-01T12:34:43;2.15;;;2.05;;
16484;SDS011;8353;47.856;12.344;2022-09-01T12:37:32;3.40;;;2.40;;
16484;SDS011;8353;47.856;12.344;2022-09-01T12:40:34;1.85;;;1.73;;
16484;SDS011;8353;47.856;12.344;2022-09-01T12:43:27;3.58;;;2.28;;
16484;SDS011;8353;47.856;12.344;2022-09-01T12:49:33;2.17;;;2.08;;
16484;SDS011;8353;47.856;12.344;2022-09-01T12:52:24;2.70;;;2.50;;
16484;SDS011;8353;47.856;12.344;2022-09-01T12:55:18;2.10;;;2.00;;
16484;SDS011;8353;47.856;12.344;2022-09-01T12:58:18;1.80;;;1.70;;
16484;SDS011;8353;47.856;12.344;2022-09-01T13:01:22;2.40;;;2.20;;
16484;SDS011;8353;47.856;12.344;2022-09-01T13:04:19;2.30;;;2.10;;
16484;SDS011;8353;47.856;12.344;2022-09-01T13:07:12;2.97;;;1.60;;
16484;SDS011;8353;47.856;12.344;2022-09-01T13:10:02;3.03;;;1.77;;
16484;SDS011;8353;47.856;12.344;2022-09-01T13:12:55;2.05;;;1.73;;
16484;SDS011;8353;47.856;12.344;2022-09-01T13:15:48;1.63;;;1.52;;
16484;SDS011;8353;47.856;12.344;2022-09-01T13:18:44;2.70;;;1.98;;
16484;SDS011;8353;47.856;12.344;2022-09-01T13:21:32;2.40;;;2.10;;
16484;SDS011;8353;47.856;12.344;2022-09-01T13:24:25;2.20;;;2.00;;
16484;SDS011;8353;47.856;12.344;2022-09-01T13:27:14;3.25;;;1.70;;
16484;SDS011;8353;47.856;12.344;2022-09-01T13:30:06;3.30;;;1.98;;
16484;SDS011;8353;47.856;12.344;2022-09-01T13:32:56;2.30;;;1.98;;
16484;SDS011;8353;47.856;12.344;2022-09-01T13:35:44;2.30;;;1.65;;
16484;SDS011;8353;47.856;12.344;2022-09-01T13:38:33;2.13;;;1.92;;
16484;SDS011;8353;47.856;12.344;2022-09-01T13:41:30;1.80;;;1.70;;
16484;SDS011;8353;47.856;12.344;2022-09-01T13:44:28;1.65;;;1.50;;
16484;SDS011;8353;47.856;12.344;2022-09-01T13:47:15;2.83;;;1.63;;
16484;SDS011;8353;47.856;12.344;2022-09-01T13:50:05;1.75;;;1.50;;
16484;SDS011;8353;47.856;12.344;2022-09-01T13:52:59;1.58;;;1.48;;
16484;SDS011;8353;47.856;12.344;2022-09-01T13:55:52;1.70;;;1.60;;
16484;SDS011;8353;47.856;12.344;2022-09-01T13:58:42;2.05;;;1.70;;
16484;SDS011;8353;47.856;12.344;2022-09-01T14:01:37;2.22;;;1.55;;
16484;SDS011;8353;47.856;12.344;2022-09-01T14:04:32;4.00;;;1.80;;
16484;SDS011;8353;47.856;12.344;2022-09-01T14:07:25;2.17;;;1.48;;
16484;SDS011;8353;47.856;12.344;2022-09-01T14:10:17;2.00;;;1.90;;
16484;SDS011;8353;47.856;12.344;2022-09-01T14:13:09;2.03;;;1.70;;
16484;SDS011;8353;47.856;12.344;2022-09-01T14:16:08;2.05;;;1.55;;
16484;SDS011;8353;47.856;12.344;2022-09-01T14:18:58;1.88;;;1.77;;
16484;SDS011;8353;47.856;12.344;2022-09-01T14:21:46;2.47;;;1.50;;
16484;SDS011;8353;47.856;12.344;2022-09-01T14:24:38;1.95;;;1.83;;
16484;SDS011;8353;47.856;12.344;2022-09-01T14:27:25;3.25;;;1.70;;
16484;SDS011;8353;47.856;12.344;2022-09-01T14:30:18;2.13;;;1.77;;
16484;SDS011;8353;47.856;12.344;2022-09-01T14:33:08;2.22;;;1.55;;
16484;SDS011;8353;47.856;12.344;2022-09-01T14:36:00;1.50;;;1.40;;
16484;SDS011;8353;47.856;12.344;2022-09-01T14:38:48;1.95;;;1.63;;
16484;SDS011;8353;47.856;12.344;2022-09-01T14:41:37;1.60;;;1.50;;
16484;SDS011;8353;47.856;12.344;2022-09-01T14:44:25;1.98;;;1.50;;
16484;SDS011;8353;47.856;12.344;2022-09-01T14:47:15;1.90;;;1.63;;
16484;SDS011;8353;47.856;12.344;2022-09-01T14:50:02;1.50;;;1.40;;
16484;SDS011;8353;47.856;12.344;2022-09-01T14:52:53;1.92;;;1.70;;
16484;SDS011;8353;47.856;12.344;2022-09-01T14:55:49;1.77;;;1.67;;
16484;SDS011;8353;47.856;12.344;2022-09-01T14:58:38;7.35;;;6.78;;
16484;SDS011;8353;47.856;12.344;2022-09-01T15:01:26;2.78;;;1.50;;
16484;SDS011;8353;47.856;12.344;2022-09-01T15:04:14;1.50;;;1.38;;
16484;SDS011;8353;47.856;12.344;2022-09-01T15:07:04;1.60;;;1.50;;
16484;SDS011;8353;47.856;12.344;2022-09-01T15:09:56;1.70;;;1.60;;
16484;SDS011;8353;47.856;12.344;2022-09-01T15:12:43;1.80;;;1.50;;
16484;SDS011;8353;47.856;12.344;2022-09-01T15:15:38;2.33;;;1.67;;
16484;SDS011;8353;47.856;12.344;2022-09-01T15:18:34;1.98;;;1.77;;
16484;SDS011;8353;47.856;12.344;2022-09-01T15:21:26;1.90;;;1.80;;
16484;SDS011;8353;47.856;12.344;2022-09-01T15:24:16;3.35;;;1.85;;
16484;SDS011;8353;47.856;12.344;2022-09-01T15:27:04;2.88;;;1.73;;
16484;SDS011;8353;47.856;12.344;2022-09-01T15:29:51;2.97;;;1.77;;
16484;SDS011;8353;47.856;12.344;2022-09-01T15:32:44;2.97;;;1.77;;
16484;SDS011;8353;47.856;12.344;2022-09-01T15:35:35;2.17;;;1.73;;
16484;SDS011;8353;47.856;12.344;2022-09-01T15:38:23;2.83;;;1.73;;
16484;SDS011;8353;47.856;12.344;2022-09-01T15:41:21;2.13;;;1.83;;
16484;SDS011;8353;47.856;12.344;2022-09-01T15:44:11;3.90;;;1.60;;
16484;SDS011;8353;47.856;12.344;2022-09-01T15:46:58;5.00;;;1.73;;
16484;SDS011;8353;47.856;12.344;2022-09-01T15:49:46;1.77;;;1.67;;
16484;SDS011;8353;47.856;12.344;2022-09-01T15:52:34;1.60;;;1.50;;
16484;SDS011;8353;47.856;12.344;2022-09-01T15:55:37;1.95;;;1.50;;
16484;SDS011;8353;47.856;12.344;2022-09-01T15:58:28;2.20;;;1.77;;
16484;SDS011;8353;47.856;12.344;2022-09-01T16:01:17;1.60;;;1.50;;
16484;SDS011;8353;47.856;12.344;2022-09-01T16:04:07;1.35;;;1.25;;
16484;SDS011;8353;47.856;12.344;2022-09-01T16:06:58;2.50;;;1.60;;
16484;SDS011;8353;47.856;12.344;2022-09-01T16:09:45;3.30;;;1.60;;
16484;SDS011;8353;47.856;12.344;2022-09-01T16:12:34;1.80;;;1.42;;
16484;SDS011;8353;47.856;12.344;2022-09-01T16:15:22;1.98;;;1.58;;
16484;SDS011;8353;47.856;12.344;2022-09-01T16:18:17;1.67;;;1.58;;
16484;SDS011;8353;47.856;12.344;2022-09-01T16:21:16;2.13;;;1.50;;
16484;SDS011;8353;47.856;12.344;2022-09-01T16:24:11;1.50;;;1.40;;
16484;SDS011;8353;47.856;12.344;2022-09-01T16:26:59;2.15;;;1.70;;
16484;SDS011;8353;47.856;12.344;2022-09-01T16:29:49;2.42;;;1.30;;
16484;SDS011;8353;47.856;12.344;2022-09-01T16:32:40;2.03;;;1.83;;
16484;SDS011;8353;47.856;12.344;2022-09-01T16:35:40;3.20;;;1.75;;
16484;SDS011;8353;47.856;12.344;2022-09-01T16:38:39;1.63;;;1.40;;
16484;SDS011;8353;47.856;12.344;2022-09-01T16:41:36;2.13;;;1.42;;
16484;SDS011;8353;47.856;12.344;2022-09-01T16:44:37;3.03;;;1.33;;
16484;SDS011;8353;47.856;12.344;2022-09-01T16:47:39;1.83;;;1.40;;
16484;SDS011;8353;47.856;12.344;2022-09-01T16:50:39;2.00;;;1.40;;
16484;SDS011;8353;47.856;12.344;2022-09-01T16:53:37;1.20;;;1.10;;
16484;SDS011;8353;47.856;12.344;2022-09-01T16:56:39;2.78;;;1.20;;
16484;SDS011;8353;47.856;12.344;2022-09-01T16:59:37;2.22;;;1.55;;
16484;SDS011;8353;47.856;12.344;2022-09-01T17:02:33;2.22;;;1.60;;
16484;SDS011;8353;47.856;12.344;2022-09-01T17:05:30;1.70;;;1.60;;
16484;SDS011;8353;47.856;12.344;2022-09-01T17:08:27;2.30;;;1.42;;
16484;SDS011;8353;47.856;12.344;2022-09-01T17:11:20;2.10;;;1.60;;
16484;SDS011;8353;47.856;12.344;2022-09-01T17:14:15;2.20;;;1.60;;
16484;SDS011;8353;47.856;12.344;2022-09-01T17:17:10;3.28;;;1.90;;
16484;SDS011;8353;47.856;12.344;2022-09-01T17:20:03;2.72;;;1.40;;
16484;SDS011;8353;47.856;12.344;2022-09-01T17:22:53;2.88;;;1.42;;
16484;SDS011;8353;47.856;12.344;2022-09-01T17:25:47;2.17;;;1.27;;
16484;SDS011;8353;47.856;12.344;2022-09-01T17:28:41;1.50;;;1.40;;
16484;SDS011;8353;47.856;12.344;2022-09-01T17:31:43;1.50;;;1.40;;
16484;SDS011;8353;47.856;12.344;2022-09-01T17:34:39;1.50;;;1.40;;
16484;SDS011;8353;47.856;12.344;2022-09-01T17:37:38;1.65;;;1.55;;
16484;SDS011;8353;47.856;12.344;2022-09-01T17:40:48;2.10;;;1.50;;
16484;SDS011;8353;47.856;12.344;2022-09-01T17:43:50;1.40;;;1.30;;